Time;durP1;ratioP1;P1;durP2;ratioP2;P2;SDS_P1;SDS_P2;PMS_P1;PMS_P2;Temp;Humidity;BMP_temperature;BMP_pressure;BME280_temperature;BME280_humidity;BME280_pressure;Samples;Min_cycle;Max_cycle;Signal;HPM_P1;HPM_P2
2022/04/01 00:01:40;;;;;;;20.82;8.73;;;;;;;12.47;57.46;99708.80;1775578;80;20944;-72
2022/04/01 00:04:07;;;;;;;26.12;7.42;;;;;;;12.46;57.26;99714.55;1775586;80;20919;-73
2022/04/01 00:06:34;;;;;;;21.10;8.88;;;;;;;12.43;57.09;99681.45;1775288;80;21202;-73
2022/04/01 00:09:02;;;;;;;22.93;8.20;;;;;;;12.40;57.01;99669.03;1775101;80;20999;-74
2022/04/01 00:11:30;;;;;;;26.60;7.85;;;;;;;12.36;56.76;99669.79;1775236;80;20991;-73
2022/04/01 00:13:57;;;;;;;21.15;7.60;;;;;;;12.30;56.67;99667.66;1775117;80;20869;-71
2022/04/01 00:16:23;;;;;;;22.48;6.92;;;;;;;12.24;56.62;99672.92;1775469;80;20916;-73
2022/04/01 00:18:51;;;;;;;30.43;9.25;;;;;;;12.20;56.62;99661.48;1775356;80;21012;-73
2022/04/01 00:21:19;;;;;;;22.87;7.70;;;;;;;12.17;56.46;99663.88;1775266;80;21664;-73
2022/04/01 00:23:46;;;;;;;25.88;8.15;;;;;;;12.13;56.42;99669.52;1775055;80;20927;-73
2022/04/01 00:26:13;;;;;;;26.90;7.70;;;;;;;12.09;56.38;99661.04;1775141;80;20912;-73
2022/04/01 00:28:40;;;;;;;16.02;7.53;;;;;;;12.07;56.28;99652.93;1775328;80;20983;-73
2022/04/01 00:31:09;;;;;;;26.05;8.43;;;;;;;12.03;56.31;99662.39;1775235;80;21405;-74
2022/04/01 00:33:36;;;;;;;15.50;7.70;;;;;;;12.01;56.31;99666.94;1775100;80;20936;-72
2022/04/01 00:36:04;;;;;;;32.85;8.80;;;;;;;11.99;56.31;99674.11;1775267;80;20925;-71
2022/04/01 00:38:31;;;;;;;23.75;7.42;;;;;;;11.98;56.33;99673.77;1775203;80;20951;-72
2022/04/01 00:40:59;;;;;;;16.37;7.40;;;;;;;11.97;56.35;99669.94;1775287;80;21031;-72
2022/04/01 00:43:28;;;;;;;17.77;7.15;;;;;;;11.96;56.37;99664.31;1775230;80;21145;-74
2022/04/01 00:45:55;;;;;;;15.68;6.72;;;;;;;11.95;56.40;99671.37;1775382;80;20849;-73
2022/04/01 00:48:22;;;;;;;17.02;6.58;;;;;;;11.94;56.45;99688.56;1775450;80;20861;-74
2022/04/01 00:50:50;;;;;;;16.23;7.20;;;;;;;11.93;56.46;99669.83;1775259;80;20865;-72
2022/04/01 00:53:17;;;;;;;23.87;7.22;;;;;;;11.92;56.47;99655.03;1775468;80;20912;-73
2022/04/01 00:55:46;;;;;;;24.43;8.03;;;;;;;11.92;56.53;99646.66;1775443;80;20873;-71
2022/04/01 00:58:15;;;;;;;28.12;8.95;;;;;;;11.91;56.59;99652.86;1775319;80;21371;-72
2022/04/01 01:00:43;;;;;;;26.57;7.40;;;;;;;11.90;56.61;99629.37;1775321;80;20893;-73
2022/04/01 01:03:10;;;;;;;18.10;7.72;;;;;;;11.89;56.63;99629.82;1775634;80;20963;-74
2022/04/01 01:05:39;;;;;;;22.17;7.30;;;;;;;11.89;56.70;99632.94;1775415;80;20968;-73
2022/04/01 01:08:07;;;;;;;29.10;9.53;;;;;;;11.88;56.77;99615.52;1775448;80;22007;-73
2022/04/01 01:10:34;;;;;;;31.15;8.93;;;;;;;11.89;56.80;99623.73;1775293;80;20904;-73
2022/04/01 01:13:03;;;;;;;18.52;6.92;;;;;;;11.87;56.81;99619.87;1775393;80;20920;-73
2022/04/01 01:15:30;;;;;;;29.48;8.50;;;;;;;11.87;56.81;99625.63;1775365;80;21528;-71
2022/04/01 01:17:57;;;;;;;24.85;7.95;;;;;;;11.87;56.78;99612.48;1775547;80;20896;-72
2022/04/01 01:20:25;;;;;;;26.65;8.00;;;;;;;11.86;56.78;99601.64;1775448;80;21899;-72
2022/04/01 01:22:53;;;;;;;18.52;7.25;;;;;;;11.84;56.81;99589.94;1775140;80;20931;-73
2022/04/01 01:25:21;;;;;;;22.67;7.70;;;;;;;11.82;56.84;99587.91;1775271;80;21363;-73
2022/04/01 01:27:49;;;;;;;18.40;7.33;;;;;;;11.82;56.86;99593.16;1775347;80;20975;-73
2022/04/01 01:30:15;;;;;;;23.18;7.92;;;;;;;11.81;56.82;99590.20;1775373;80;20904;-72
2022/04/01 01:32:43;;;;;;;23.22;7.45;;;;;;;11.79;56.81;99603.93;1775392;80;21193;-73
2022/04/01 01:35:12;;;;;;;24.07;7.33;;;;;;;11.78;56.78;99596.99;1775273;80;20991;-73
2022/04/01 01:37:38;;;;;;;22.13;8.20;;;;;;;11.79;56.77;99603.45;1775270;80;21006;-71
2022/04/01 01:40:09;;;;;;;19.82;7.42;;;;;;;11.79;56.74;99607.88;1775351;80;20888;-72
2022/04/01 01:42:36;;;;;;;15.15;7.03;;;;;;;11.78;56.74;99600.48;1775407;80;21358;-73
2022/04/01 01:45:05;;;;;;;29.02;9.35;;;;;;;11.78;56.74;99607.05;1775347;80;21860;-73
2022/04/01 01:47:31;;;;;;;17.25;7.20;;;;;;;11.78;56.70;99600.94;1775623;80;21470;-72
2022/04/01 01:55:30;;;;;;;21.55;7.37;;;;;;;11.78;56.61;99604.87;1775375;80;20991;-72
2022/04/01 01:58:00;;;;;;;19.02;7.95;;;;;;;11.76;56.65;99615.53;1753729;80;21275;-73
2022/04/01 02:00:27;;;;;;;14.85;7.97;;;;;;;11.75;56.64;99611.22;1775513;80;20912;-73
2022/04/01 02:02:56;;;;;;;28.57;8.40;;;;;;;11.75;56.59;99615.64;1775335;80;20900;-72
2022/04/01 02:05:23;;;;;;;24.50;7.35;;;;;;;11.75;56.59;99622.20;1775387;80;20928;-73
2022/04/01 02:07:52;;;;;;;24.57;8.78;;;;;;;11.75;56.57;99599.88;1776317;80;20979;-71
2022/04/01 02:10:20;;;;;;;18.60;6.85;;;;;;;11.76;56.55;99589.27;1775850;80;21056;-69
2022/04/01 02:12:46;;;;;;;25.80;7.05;;;;;;;11.77;56.51;99584.83;1775519;80;20905;-73
2022/04/01 02:15:15;;;;;;;27.82;8.45;;;;;;;11.75;56.56;99574.93;1775259;80;20873;-72
2022/04/01 02:17:43;;;;;;;22.52;7.42;;;;;;;11.77;56.57;99573.84;1775373;80;20939;-73
2022/04/01 02:20:10;;;;;;;22.87;7.67;;;;;;;11.77;56.63;99565.14;1768574;80;20979;-72
2022/04/01 02:22:40;;;;;;;19.98;9.23;;;;;;;11.78;56.67;99562.39;1775168;80;21277;-72
2022/04/01 02:25:09;;;;;;;25.85;8.80;;;;;;;11.79;56.70;99556.16;1782869;80;20972;-73
2022/04/01 02:27:35;;;;;;;19.12;6.70;;;;;;;11.80;56.72;99563.10;1783763;80;20928;-72
2022/04/01 02:30:10;;;;;;;21.75;7.65;;;;;;;11.81;56.78;99566.06;1783758;80;20935;-73
2022/04/01 02:32:43;;;;;;;21.10;7.17;;;;;;;11.82;56.87;99568.20;1762376;80;20896;-72
2022/04/01 02:35:25;;;;;;;24.75;7.25;;;;;;;11.85;56.89;99569.29;1783895;80;21234;-73
2022/04/01 02:37:52;;;;;;;24.20;7.85;;;;;;;11.87;56.96;99556.01;1783817;80;20940;-74
2022/04/01 02:40:19;;;;;;;27.00;7.12;;;;;;;11.89;57.01;99567.25;1784149;80;20970;-71
2022/04/01 02:42:46;;;;;;;21.07;7.15;;;;;;;11.90;57.05;99571.56;1783814;80;20888;-73
2022/04/01 02:45:15;;;;;;;25.57;8.83;;;;;;;11.90;57.12;99568.45;1782966;80;20916;-72
2022/04/01 02:47:43;;;;;;;32.23;12.68;;;;;;;11.93;57.18;99577.38;1783930;80;20931;-72
2022/04/01 02:50:10;;;;;;;24.95;8.83;;;;;;;11.95;57.19;99573.33;1783988;80;20999;-71
2022/04/01 02:52:38;;;;;;;22.58;6.70;;;;;;;11.97;57.26;99568.30;1783738;80;20888;-73
2022/04/01 02:55:08;;;;;;;22.37;7.58;;;;;;;11.99;57.30;99582.14;1783780;80;20872;-72
2022/04/01 02:57:35;;;;;;;23.42;7.33;;;;;;;12.01;57.35;99573.66;1784052;80;20935;-72
2022/04/01 03:00:03;;;;;;;24.25;6.87;;;;;;;12.05;57.35;99570.76;1783715;80;21534;-72
2022/04/01 03:02:30;;;;;;;22.80;7.70;;;;;;;12.09;57.29;99566.92;1783620;80;21478;-72
2022/04/01 03:04:58;;;;;;;21.00;8.60;;;;;;;12.12;57.16;99563.56;1783700;80;20857;-71
2022/04/01 03:07:25;;;;;;;22.02;7.58;;;;;;;12.14;57.03;99562.96;1755249;80;20960;-73
2022/04/01 03:09:53;;;;;;;27.60;9.35;;;;;;;12.17;56.92;99558.75;1783917;80;20912;-73
2022/04/01 03:12:22;;;;;;;28.00;8.23;;;;;;;12.20;56.83;99544.52;1783722;80;21154;-73
2022/04/01 03:14:51;;;;;;;24.52;8.23;;;;;;;12.22;56.71;99542.10;1783666;80;20932;-72
2022/04/01 03:17:37;;;;;;;24.40;8.55;;;;;;;12.24;56.59;99554.64;1783886;80;20873;-73
2022/04/01 03:20:14;;;;;;;31.65;9.13;;;;;;;12.26;56.49;99548.44;1782213;80;20896;-73
2022/04/01 03:22:43;;;;;;;18.82;7.53;;;;;;;12.26;56.43;99553.20;1783809;80;21437;-74
2022/04/01 03:25:13;;;;;;;15.75;7.40;;;;;;;12.27;56.35;99546.97;1777125;80;21069;-72
2022/04/01 03:27:43;;;;;;;20.43;7.28;;;;;;;12.27;56.30;99554.86;1773488;80;20991;-73
2022/04/01 03:30:11;;;;;;;34.67;9.45;;;;;;;12.27;56.18;99556.17;1752700;80;21059;-72
2022/04/01 03:32:38;;;;;;;25.68;8.38;;;;;;;12.27;56.03;99544.83;1775649;80;20893;-74
2022/04/01 03:35:13;;;;;;;21.70;7.83;;;;;;;12.27;55.90;99553.54;1775479;80;20849;-73
2022/04/01 03:37:39;;;;;;;;;;;;;;;12.28;55.77;99547.34;1757057;80;21085;-74
2022/04/01 03:40:08;;;;;;;27.02;9.48;;;;;;;12.28;55.70;99547.34;1775430;80;20081;-74
2022/04/01 03:42:35;;;;;;;25.15;8.00;;;;;;;12.26;55.68;99547.95;1775236;80;20936;-73
2022/04/01 03:45:06;;;;;;;25.48;7.30;;;;;;;12.27;55.60;99560.60;1775523;80;20861;-73
2022/04/01 03:47:51;;;;;;;26.17;7.28;;;;;;;12.27;55.59;99551.40;1707204;84;20936;-74
2022/04/01 03:50:24;;;;;;;23.02;6.60;;;;;;;12.26;55.41;99532.66;1707199;84;21256;-74
2022/04/01 03:52:51;;;;;;;25.97;6.87;;;;;;;12.27;55.38;99529.05;1706961;84;20959;-75
2022/04/01 03:55:18;;;;;;;16.50;7.25;;;;;;;12.28;55.23;99529.42;1706860;84;20948;-73
2022/04/01 03:58:04;;;;;;;22.17;7.25;;;;;;;12.28;55.13;99523.68;1654409;86;20914;-74
2022/04/01 04:00:50;;;;;;;28.75;8.50;;;;;;;12.28;54.97;99514.48;1654608;86;21654;-73
2022/04/01 04:03:17;;;;;;;21.52;6.95;;;;;;;12.30;54.87;99512.55;1654374;86;21248;-73
2022/04/01 04:05:44;;;;;;;29.05;6.47;;;;;;;12.31;54.77;99523.89;1654698;86;20921;-73
2022/04/01 04:08:11;;;;;;;19.00;6.33;;;;;;;12.33;54.54;99525.91;1654893;86;20965;-73
2022/04/01 04:10:38;;;;;;;26.68;6.95;;;;;;;12.36;54.44;99532.22;1646914;86;20934;-73
2022/04/01 04:13:06;;;;;;;26.90;6.95;;;;;;;12.36;54.18;99533.07;1632099;86;20910;-72
2022/04/01 04:15:40;;;;;;;27.45;6.92;;;;;;;12.39;54.00;99534.61;1654175;86;21168;-73
2022/04/01 04:18:12;;;;;;;19.23;6.55;;;;;;;12.42;53.82;99528.59;1632123;86;21412;-74
2022/04/01 04:21:07;;;;;;;20.25;6.75;;;;;;;12.46;53.54;99521.28;1647129;86;20981;-74
2022/04/01 04:23:45;;;;;;;26.42;6.92;;;;;;;12.50;53.41;99520.06;1646886;86;20941;-74
2022/04/01 04:26:22;;;;;;;25.55;8.90;;;;;;;12.53;53.23;99515.02;1675472;85;20960;-73
2022/04/01 04:28:50;;;;;;;26.48;7.25;;;;;;;12.57;52.96;99511.98;1654146;85;21281;-73
2022/04/01 04:31:37;;;;;;;23.98;8.70;;;;;;;12.57;52.74;99500.15;1656422;85;21074;-74
2022/04/01 04:34:10;;;;;;;24.37;8.05;;;;;;;12.62;52.73;99508.47;1728103;80;20913;-73
2022/04/01 04:38:47;;;;;;;29.82;7.85;;;;;;;12.73;52.34;99502.77;1834005;77;23319;-73
2022/04/01 04:41:14;;;;;;;30.80;7.62;;;;;;;12.72;52.12;99512.95;1813201;78;20860;-73
2022/04/01 04:43:44;;;;;;;27.13;7.40;;;;;;;12.77;51.88;99510.75;1802229;78;20880;-74
2022/04/01 04:46:11;;;;;;;27.55;8.23;;;;;;;12.81;51.73;99512.16;1802346;78;20868;-74
2022/04/01 04:48:41;;;;;;;24.98;8.33;;;;;;;12.84;51.44;99521.91;1807113;78;20995;-73
2022/04/01 04:51:09;;;;;;;31.50;7.30;;;;;;;12.88;51.22;99522.48;1799685;78;20935;-72
2022/04/01 04:53:39;;;;;;;23.07;7.08;;;;;;;12.92;50.92;99512.53;1794642;78;20956;-73
2022/04/01 04:56:11;;;;;;;21.77;6.53;;;;;;;12.95;50.80;99517.03;1801870;78;21248;-73
2022/04/01 04:58:42;;;;;;;23.83;6.92;;;;;;;12.98;50.63;99514.14;1807776;78;20865;-74
2022/04/01 05:01:27;;;;;;;24.02;6.28;;;;;;;13.04;50.50;99510.95;1801274;78;20905;-74
2022/04/01 05:04:14;;;;;;;23.20;6.28;;;;;;;13.08;50.24;99495.73;1801218;78;20908;-73
2022/04/01 05:06:59;;;;;;;24.05;7.47;;;;;;;13.12;50.04;99485.77;1800579;78;20955;-74
2022/04/01 05:09:56;;;;;;;26.57;6.65;;;;;;;13.16;49.88;99484.50;1805702;78;21765;-73
2022/04/01 05:12:46;;;;;;;22.22;6.42;;;;;;;13.19;49.80;99494.30;1774511;79;20877;-73
2022/04/01 05:15:24;;;;;;;18.90;5.95;;;;;;;13.22;49.54;99483.97;1809561;79;21000;-73
2022/04/01 05:18:15;;;;;;;35.63;8.68;;;;;;;13.24;49.48;99484.17;1808816;78;21030;-73
2022/04/01 05:20:59;;;;;;;25.10;9.60;;;;;;;13.27;49.42;99492.28;1798870;78;21487;-73
2022/04/01 05:23:54;;;;;;;20.62;7.75;;;;;;;13.27;49.22;99491.81;1800297;78;21549;-73
2022/04/01 05:26:38;;;;;;;23.40;7.08;;;;;;;13.37;48.97;99509.45;1801722;78;21022;-74
2022/04/01 05:29:14;;;;;;;29.82;7.42;;;;;;;13.41;48.91;99492.41;1805205;78;20916;-72
2022/04/01 05:31:46;;;;;;;22.90;6.53;;;;;;;13.43;48.52;99491.30;1805550;78;21003;-72
2022/04/01 05:34:39;;;;;;;21.73;5.85;;;;;;;13.49;48.39;99480.67;1809490;79;20920;-75
2022/04/01 05:37:07;;;;;;;26.97;6.37;;;;;;;13.55;48.09;99480.63;1809029;78;21119;-75
2022/04/01 05:39:37;;;;;;;28.70;7.42;;;;;;;13.65;47.93;99471.75;1803529;78;21316;-75
2022/04/01 05:42:07;;;;;;;28.47;7.65;;;;;;;13.65;47.93;99471.75;1791467;78;20920;-74
2022/04/01 05:44:37;;;;;;;22.98;6.47;;;;;;;13.72;47.51;99484.34;1800393;78;20939;-74
2022/04/01 05:47:06;;;;;;;17.90;6.05;;;;;;;13.81;47.32;99480.88;1783385;78;20915;-74
2022/04/01 05:49:41;;;;;;;30.37;7.87;;;;;;;13.91;47.04;99478.22;1812912;78;21872;-74
2022/04/01 05:52:10;;;;;;;24.55;6.45;;;;;;;14.01;46.86;99490.91;1781104;78;20887;-75
2022/04/01 05:54:39;;;;;;;20.70;6.45;;;;;;;14.13;46.77;99503.43;1794653;78;20915;-74
2022/04/01 05:57:08;;;;;;;15.72;5.35;;;;;;;14.27;46.22;99497.69;1799125;79;21389;-75
2022/04/01 05:59:38;;;;;;;27.42;7.00;;;;;;;14.43;46.02;99499.25;1811941;78;20927;-76
2022/04/01 06:02:17;;;;;;;30.82;8.13;;;;;;;14.67;45.51;99482.94;1795526;78;21255;-74
2022/04/01 06:04:57;;;;;;;27.90;6.10;;;;;;;14.96;45.06;99501.72;1798695;78;20840;-75
2022/04/01 06:07:51;;;;;;;21.65;6.62;;;;;;;15.29;44.45;99491.52;1808954;78;20916;-75
2022/04/01 06:10:42;;;;;;;30.23;6.33;;;;;;;15.55;43.62;99501.66;1797546;78;20936;-75
2022/04/01 06:13:39;;;;;;;24.55;7.45;;;;;;;15.78;43.28;99505.19;1809278;78;21421;-74
2022/04/01 06:16:56;;;;;;;26.85;7.20;;;;;;;15.98;42.97;99486.00;1808550;79;21268;-75
2022/04/01 06:19:46;;;;;;;28.23;7.80;;;;;;;16.17;42.58;99500.85;1801142;78;20837;-74
2022/04/01 06:22:18;;;;;;;29.27;7.12;;;;;;;16.27;42.50;99474.28;1803398;78;20833;-75
2022/04/01 06:25:13;;;;;;;28.90;7.45;;;;;;;16.39;42.53;99469.56;1799239;78;20971;-74
2022/04/01 06:27:46;;;;;;;30.75;7.87;;;;;;;16.52;42.02;99481.88;1804491;78;21523;-75
2022/04/01 06:30:25;;;;;;;29.30;6.33;;;;;;;16.60;41.92;99463.36;1813904;78;21083;-75
2022/04/01 06:33:15;;;;;;;26.50;8.30;;;;;;;16.63;41.93;99448.50;1791159;78;21383;-73
2022/04/01 06:36:05;;;;;;;31.02;7.30;;;;;;;16.65;42.13;99445.20;1781587;79;20951;-74
2022/04/01 06:39:06;;;;;;;20.40;6.60;;;;;;;16.65;42.19;99442.55;1809043;78;21486;-74
2022/04/01 06:41:44;;;;;;;30.82;7.70;;;;;;;16.65;42.34;99446.99;1797056;78;20918;-73
2022/04/01 06:44:31;;;;;;;31.97;7.25;;;;;;;16.68;42.43;99449.34;1786510;78;22030;-74
2022/04/01 06:47:01;;;;;;;28.77;6.95;;;;;;;16.71;42.58;99455.62;1808187;78;20923;-74
2022/04/01 06:49:28;;;;;;;31.52;7.80;;;;;;;16.80;42.33;99440.12;1804286;78;20891;-74
2022/04/01 06:52:15;;;;;;;30.00;7.90;;;;;;;16.95;42.19;99435.86;1794766;78;21057;-74
2022/04/01 06:55:01;;;;;;;27.48;6.92;;;;;;;17.13;42.08;99441.53;1802191;78;21650;-74
2022/04/01 06:57:40;;;;;;;37.50;7.67;;;;;;;17.32;41.87;99425.80;1768902;78;21258;-75
2022/04/01 07:00:21;;;;;;;28.47;7.10;;;;;;;17.49;41.73;99429.30;1689628;84;20924;-74
2022/04/01 07:02:49;;;;;;;28.10;7.17;;;;;;;17.63;41.50;99431.29;1689666;84;21493;-75
2022/04/01 07:05:16;;;;;;;33.75;7.35;;;;;;;17.85;41.18;99424.98;1654264;85;20971;-73
2022/04/01 07:07:45;;;;;;;34.38;6.95;;;;;;;18.08;40.88;99411.34;1644143;87;21415;-74
2022/04/01 07:10:12;;;;;;;30.27;7.92;;;;;;;18.33;40.34;99408.61;1638456;86;21131;-74
2022/04/01 07:12:41;;;;;;;29.72;8.63;;;;;;;18.47;39.96;99425.62;1690624;84;20975;-75
2022/04/01 07:15:12;;;;;;;28.92;6.85;;;;;;;18.49;40.04;99417.81;1691345;84;20995;-74
2022/04/01 07:17:41;;;;;;;26.75;6.65;;;;;;;18.61;39.68;99415.12;1689288;83;20976;-76
2022/04/01 07:20:12;;;;;;;35.30;7.62;;;;;;;18.71;39.70;99418.88;1684079;84;21157;-75
2022/04/01 07:22:42;;;;;;;22.40;6.78;;;;;;;18.72;39.58;99425.00;1683287;83;21518;-74
2022/04/01 07:25:10;;;;;;;34.03;7.40;;;;;;;18.70;39.69;99434.97;1691385;84;21019;-71
2022/04/01 07:27:38;;;;;;;20.90;5.78;;;;;;;18.82;39.76;99419.83;1690292;85;21425;-73
2022/04/01 07:30:08;;;;;;;32.05;8.63;;;;;;;18.96;39.52;99426.73;1690099;84;20959;-74
2022/04/01 07:32:39;;;;;;;24.23;6.10;;;;;;;19.13;39.49;99420.81;1690144;83;20959;-74
2022/04/01 07:35:11;;;;;;;28.73;8.10;;;;;;;19.38;39.13;99423.59;1693687;81;21054;-74
2022/04/01 07:37:41;;;;;;;31.90;8.68;;;;;;;19.61;38.69;99397.00;1805141;78;20892;-75
2022/04/01 07:40:11;;;;;;;25.50;6.28;;;;;;;19.77;38.50;99393.89;1797686;78;20890;-75
2022/04/01 07:42:38;;;;;;;30.75;8.03;;;;;;;19.90;38.46;99399.41;1798150;78;20865;-74
2022/04/01 07:45:08;;;;;;;26.75;7.03;;;;;;;19.99;38.34;99388.98;1798679;78;20853;-74
2022/04/01 07:47:36;;;;;;;26.87;8.00;;;;;;;20.15;38.13;99387.97;1802373;79;21144;-74
2022/04/01 07:50:05;;;;;;;28.52;6.37;;;;;;;20.29;38.00;99399.61;1805917;78;20884;-74
2022/04/01 07:52:33;;;;;;;19.05;6.62;;;;;;;20.51;37.74;99392.52;1808493;78;20960;-75
2022/04/01 07:55:01;;;;;;;28.00;6.40;;;;;;;20.68;37.51;99389.98;1802531;78;21505;-75
2022/04/01 07:57:28;;;;;;;28.47;7.80;;;;;;;20.85;37.42;99397.25;1789873;78;20962;-73
2022/04/01 07:59:56;;;;;;;30.70;7.08;;;;;;;21.04;37.48;99394.97;1798459;78;21354;-74
2022/04/01 08:02:23;;;;;;;26.15;10.53;;;;;;;21.33;36.99;99400.16;1802302;78;20873;-73
2022/04/01 08:04:53;;;;;;;36.75;7.72;;;;;;;21.57;36.51;99388.80;1807712;78;20872;-74
2022/04/01 08:07:22;;;;;;;25.27;7.20;;;;;;;21.75;36.05;99395.50;1800997;78;20975;-74
2022/04/01 08:09:52;;;;;;;27.10;7.65;;;;;;;21.86;35.83;99382.42;1794030;78;20943;-73
2022/04/01 08:12:20;;;;;;;30.05;7.72;;;;;;;22.04;35.74;99373.09;1801717;78;21162;-74
2022/04/01 08:14:47;;;;;;;27.30;8.05;;;;;;;22.17;35.39;99389.69;1804018;78;20868;-74
2022/04/01 08:17:15;;;;;;;33.08;8.00;;;;;;;22.31;35.20;99380.73;1808082;78;20994;-73
2022/04/01 08:19:45;;;;;;;30.95;7.87;;;;;;;22.45;34.89;99387.77;1799009;78;21148;-75
2022/04/01 08:22:14;;;;;;;30.37;7.10;;;;;;;22.57;34.60;99362.66;1805548;78;21361;-74
2022/04/01 08:24:41;;;;;;;27.25;9.40;;;;;;;22.67;34.59;99372.95;1801940;78;21327;-73
2022/04/01 08:27:09;;;;;;;25.72;7.75;;;;;;;22.85;34.40;99379.06;1803789;78;21070;-74
2022/04/01 08:29:38;;;;;;;31.65;6.62;;;;;;;23.16;34.39;99373.17;1797555;78;20873;-74
2022/04/01 08:32:07;;;;;;;33.00;7.00;;;;;;;23.48;33.60;99385.45;1808470;78;20889;-76
2022/04/01 08:34:35;;;;;;;31.30;8.40;;;;;;;23.67;33.29;99375.21;1768579;79;20842;-75
2022/04/01 08:37:03;;;;;;;36.33;7.65;;;;;;;23.73;33.15;99373.57;1808723;78;21614;-75
2022/04/01 08:39:32;;;;;;;31.57;7.15;;;;;;;23.75;33.17;99373.70;1804327;78;20975;-73
2022/04/01 08:42:00;;;;;;;23.57;7.83;;;;;;;23.83;33.04;99380.67;1810869;78;21469;-74
2022/04/01 08:44:27;;;;;;;32.70;7.30;;;;;;;23.92;32.97;99381.27;1756496;78;20880;-76
2022/04/01 08:46:55;;;;;;;49.15;8.85;;;;;;;24.07;32.90;99370.33;1808744;79;20912;-74
2022/04/01 08:49:24;;;;;;;30.88;6.75;;;;;;;24.15;32.34;99384.84;1796198;78;21352;-72
2022/04/01 08:51:51;;;;;;;37.38;6.78;;;;;;;24.07;32.37;99390.41;1802021;78;20928;-74
2022/04/01 08:54:20;;;;;;;31.10;7.20;;;;;;;23.82;32.67;99366.17;1786625;79;20963;-76
2022/04/01 08:56:48;;;;;;;24.32;6.67;;;;;;;23.63;32.76;99383.87;1799127;78;21486;-75
2022/04/01 08:59:16;;;;;;;35.92;8.05;;;;;;;23.54;32.89;99371.21;1799254;78;20876;-74
2022/04/01 09:01:44;;;;;;;30.77;8.35;;;;;;;23.59;32.99;99362.88;1804387;78;21281;-75
2022/04/01 09:04:23;;;;;;;29.67;7.40;;;;;;;23.70;33.08;99358.75;1794097;78;20923;-75
2022/04/01 09:06:52;;;;;;;30.27;7.60;;;;;;;23.86;32.79;99363.39;1799843;79;21358;-74
2022/04/01 09:09:25;;;;;;;35.48;6.22;;;;;;;24.12;32.53;99362.47;1795383;78;20943;-74
2022/04/01 09:12:14;;;;;;;21.55;7.00;;;;;;;24.37;32.01;99359.92;1799907;78;21409;-74
2022/04/01 09:14:52;;;;;;;31.15;8.15;;;;;;;24.63;31.77;99362.19;1797959;78;20868;-74
2022/04/01 09:17:20;;;;;;;34.65;8.63;;;;;;;24.76;31.30;99359.42;1797733;78;21436;-73
2022/04/01 09:19:47;;;;;;;43.33;7.80;;;;;;;24.79;31.21;99383.97;1804115;78;20896;-74
2022/04/01 09:22:23;;;;;;;35.17;7.60;;;;;;;24.79;31.02;99383.15;1787069;78;20899;-74
2022/04/01 09:25:02;;;;;;;28.00;8.13;;;;;;;24.80;31.13;99344.55;1768841;79;21014;-74
2022/04/01 09:27:48;;;;;;;24.70;6.87;;;;;;;24.82;31.14;99339.27;1800982;78;21680;-74
2022/04/01 09:30:20;;;;;;;30.60;7.42;;;;;;;24.77;31.23;99335.09;1809071;78;21393;-73
2022/04/01 09:32:51;;;;;;;26.42;7.92;;;;;;;24.75;31.28;99333.14;1807089;78;20927;-73
2022/04/01 09:35:22;;;;;;;27.67;7.95;;;;;;;24.76;31.41;99327.25;1803568;78;21433;-74
2022/04/01 09:38:01;;;;;;;35.63;8.03;;;;;;;24.81;31.39;99330.94;1808558;78;20916;-74
2022/04/01 09:40:30;;;;;;;39.88;8.18;;;;;;;24.67;31.42;99328.02;1808772;79;21096;-73
2022/04/01 09:42:58;;;;;;;34.53;7.87;;;;;;;24.50;31.57;99321.03;1808540;79;21350;-74
2022/04/01 09:45:33;;;;;;;32.93;8.05;;;;;;;24.40;31.71;99341.54;1808555;79;21381;-73
2022/04/01 09:48:09;;;;;;;35.88;8.50;;;;;;;24.38;31.65;99348.97;1802749;78;21010;-75
2022/04/01 09:50:42;;;;;;;31.07;7.80;;;;;;;24.26;31.94;99329.78;1803308;78;20880;-74
2022/04/01 09:53:17;;;;;;;36.30;7.45;;;;;;;24.26;31.78;99325.23;1799906;78;21152;-73
2022/04/01 09:55:45;;;;;;;;;;;;;;;24.17;31.74;99337.23;1811053;79;20841;-74
2022/04/01 09:58:13;;;;;;;42.35;8.83;;;;;;;23.95;32.05;99328.13;1808045;78;20082;-75
2022/04/01 10:00:42;;;;;;;25.10;7.10;;;;;;;23.87;32.24;99323.52;1795479;78;20946;-74
2022/04/01 10:03:11;;;;;;;33.98;6.90;;;;;;;23.87;32.09;99343.08;1811412;78;20912;-75
2022/04/01 10:05:40;;;;;;;37.10;8.28;;;;;;;23.91;32.10;99326.91;1808496;78;21547;-76
2022/04/01 10:08:10;;;;;;;37.63;8.33;;;;;;;23.93;31.92;99314.13;1802612;78;21366;-75
2022/04/01 10:10:40;;;;;;;34.03;7.85;;;;;;;23.95;31.89;99309.91;1810189;78;21386;-75
2022/04/01 10:13:26;;;;;;;34.33;8.10;;;;;;;24.05;31.85;99307.59;1804186;78;20927;-74
2022/04/01 10:15:54;;;;;;;31.10;7.45;;;;;;;24.21;31.65;99302.27;1807494;78;21374;-75
2022/04/01 10:18:22;;;;;;;32.70;8.00;;;;;;;24.41;31.51;99294.12;1802708;78;21110;-75
2022/04/01 10:20:56;;;;;;;24.75;6.22;;;;;;;24.69;30.87;99298.33;1808388;79;20995;-74
2022/04/01 10:23:24;;;;;;;;;;;;;;;24.89;30.51;99312.41;1771721;78;21179;-76
2022/04/01 10:26:02;;;;;;;30.25;7.22;;;;;;;25.05;30.35;99313.73;1804874;78;20087;-74
2022/04/01 10:28:29;;;;;;;36.80;9.83;;;;;;;25.30;30.02;99305.72;1803953;78;21019;-75
2022/04/01 10:31:01;;;;;;;35.92;9.25;;;;;;;25.49;29.59;99303.06;1804669;78;21699;-75
2022/04/01 10:33:38;;;;;;;29.52;10.88;;;;;;;25.57;29.46;99288.83;1808610;79;21402;-73
2022/04/01 10:36:26;;;;;;;37.75;9.03;;;;;;;25.63;29.32;99315.30;1808710;79;20853;-74
2022/04/01 10:39:06;;;;;;;33.95;7.28;;;;;;;25.70;29.01;99310.70;1799873;78;20857;-73
2022/04/01 10:41:34;;;;;;;32.13;7.05;;;;;;;25.71;29.03;99308.83;1804462;78;20916;-75
2022/04/01 10:44:02;;;;;;;35.03;10.15;;;;;;;25.64;29.07;99306.21;1802802;78;21112;-75
2022/04/01 10:46:29;;;;;;;31.10;7.83;;;;;;;25.56;29.08;99314.02;1802511;78;21517;-73
2022/04/01 10:52:22;;;;;;;33.53;7.83;;;;;;;25.39;29.27;99307.58;1798485;78;20933;-74
2022/04/01 10:55:06;;;;;;;29.87;7.90;;;;;;;25.36;29.41;99320.11;1804449;78;20911;-73
2022/04/01 10:57:45;;;;;;;25.90;7.87;;;;;;;25.34;29.46;99303.41;1787811;78;21149;-73
2022/04/01 11:00:17;;;;;;;28.90;7.40;;;;;;;25.42;29.53;99297.76;1805341;78;21450;-75
2022/04/01 11:02:46;;;;;;;35.60;7.28;;;;;;;25.57;29.51;99288.83;1796333;78;21354;-74
2022/04/01 11:05:32;;;;;;;30.30;8.85;;;;;;;25.78;29.32;99276.81;1801678;78;20921;-74
2022/04/01 11:08:25;;;;;;;21.55;6.72;;;;;;;25.97;28.91;99269.61;1815412;78;20888;-73
2022/04/01 11:11:16;;;;;;;27.15;7.22;;;;;;;26.12;28.52;99296.59;1807850;78;21136;-74
2022/04/01 11:13:45;;;;;;;34.65;7.85;;;;;;;26.08;28.17;99272.05;1808188;79;20971;-73
2022/04/01 11:16:21;;;;;;;33.83;8.40;;;;;;;25.96;28.58;99288.62;1799793;78;21398;-73
2022/04/01 11:19:20;;;;;;;29.95;8.13;;;;;;;25.94;28.54;99272.72;1775700;79;21011;-74
2022/04/01 11:21:51;;;;;;;30.48;7.67;;;;;;;25.89;28.59;99279.30;1793348;78;20948;-76
2022/04/01 11:24:30;;;;;;;29.30;6.62;;;;;;;25.89;28.58;99254.31;1791724;78;21534;-72
2022/04/01 11:27:24;;;;;;;44.85;8.25;;;;;;;25.97;28.40;99268.79;1800780;78;20867;-73
2022/04/01 11:30:13;;;;;;;33.67;9.60;;;;;;;25.98;28.25;99248.39;1798636;78;20852;-73
2022/04/01 11:32:46;;;;;;;34.92;7.92;;;;;;;25.93;28.34;99254.98;1809152;78;21438;-75
2022/04/01 11:35:16;;;;;;;27.30;7.08;;;;;;;25.80;28.37;99244.37;1802403;78;20928;-74
2022/04/01 11:37:46;;;;;;;31.70;6.85;;;;;;;25.60;28.45;99249.97;1804005;78;21139;-75
2022/04/01 11:40:17;;;;;;;33.38;8.98;;;;;;;25.48;28.64;99243.69;1802926;78;21318;-75
2022/04/01 11:43:04;;;;;;;23.27;7.30;;;;;;;25.39;28.87;99251.21;1800134;78;20869;-75
2022/04/01 11:45:33;;;;;;;28.30;7.60;;;;;;;25.34;28.69;99249.73;1812522;78;20885;-74
2022/04/01 11:48:19;;;;;;;36.77;8.45;;;;;;;25.23;28.90;99253.45;1808476;78;20979;-75
2022/04/01 11:50:48;;;;;;;40.50;8.53;;;;;;;25.13;28.82;99255.78;1808710;79;21133;-75
2022/04/01 11:53:35;;;;;;;55.15;10.03;;;;;;;25.09;29.11;99257.26;1803896;78;21010;-74
2022/04/01 11:56:04;;;;;;;35.25;7.95;;;;;;;25.04;29.05;99251.74;1795941;78;20896;-72
2022/04/01 11:58:51;;;;;;;34.78;7.25;;;;;;;24.89;29.04;99239.19;1801119;79;20932;-75
2022/04/01 12:01:21;;;;;;;40.33;8.28;;;;;;;24.71;29.40;99222.52;1799484;78;20968;-75
2022/04/01 12:03:49;;;;;;;34.75;8.05;;;;;;;24.55;29.64;99243.47;1804733;79;21272;-72